createdAt,value
2019-05-18T00:00:39.150Z,8.10
2019-05-18T00:01:45.094Z,8.70
2019-05-18T00:02:49.639Z,8.53
2019-05-18T00:03:55.354Z,8.30
2019-05-18T00:05:00.356Z,8.08
2019-05-18T00:06:05.455Z,9.10
2019-05-18T00:07:10.244Z,8.53
2019-05-18T00:08:17.786Z,8.45
2019-05-18T00:09:23.086Z,8.28
2019-05-18T00:10:28.380Z,8.43
2019-05-18T00:11:33.796Z,8.78
2019-05-18T00:12:39.147Z,8.35
2019-05-18T00:13:44.238Z,8.48
2019-05-18T00:14:49.829Z,8.18
2019-05-18T00:15:55.120Z,8.95
2019-05-18T00:17:00.659Z,8.60
2019-05-18T00:18:05.655Z,8.55
2019-05-18T00:19:11.225Z,9.05
2019-05-18T00:20:15.965Z,8.65
2019-05-18T00:21:21.029Z,9.23
2019-05-18T00:22:25.834Z,9.03
2019-05-18T00:23:30.947Z,8.88
2019-05-18T00:24:35.456Z,9.70
2019-05-18T00:25:41.041Z,9.55
2019-05-18T00:26:47.154Z,9.75
2019-05-18T00:27:52.727Z,9.48
2019-05-18T00:28:57.758Z,9.00
2019-05-18T00:30:03.324Z,9.85
2019-05-18T00:31:08.014Z,10.10
2019-05-18T00:32:13.261Z,9.58
2019-05-18T00:33:20.772Z,9.90
2019-05-18T00:34:26.646Z,10.30
2019-05-18T00:35:31.429Z,10.00
2019-05-18T00:36:36.959Z,9.63
2019-05-18T00:37:42.322Z,10.45
2019-05-18T00:38:48.246Z,10.55
2019-05-18T00:39:53.563Z,9.35
2019-05-18T00:40:58.864Z,9.70
2019-05-18T00:42:03.739Z,9.85
2019-05-18T00:43:09.035Z,9.00
2019-05-18T00:44:14.371Z,9.68
2019-05-18T00:45:19.401Z,8.88
2019-05-18T00:46:24.484Z,9.15
2019-05-18T00:47:40.779Z,8.90
2019-05-18T00:48:36.316Z,8.63
2019-05-18T00:49:42.334Z,8.68
2019-05-18T00:50:46.863Z,8.30
2019-05-18T00:51:52.231Z,8.43
2019-05-18T00:52:57.894Z,8.73
2019-05-18T00:54:03.316Z,8.58
2019-05-18T00:55:08.767Z,8.88
2019-05-18T00:56:14.648Z,9.25
2019-05-18T00:57:20.029Z,8.80
2019-05-18T00:58:25.596Z,8.78
2019-05-18T00:59:31.034Z,9.03
2019-05-18T01:00:36.293Z,9.20
2019-05-18T01:01:41.374Z,9.15
2019-05-18T01:02:47.393Z,8.80
2019-05-18T01:03:52.434Z,9.05
2019-05-18T01:04:57.957Z,9.30
2019-05-18T01:06:03.146Z,8.83
2019-05-18T01:07:08.687Z,9.68
2019-05-18T01:08:13.810Z,9.28
2019-05-18T01:09:19.750Z,9.05
2019-05-18T01:10:25.052Z,8.88
2019-05-18T01:11:30.629Z,9.93
2019-05-18T01:12:35.586Z,9.78
2019-05-18T01:13:41.422Z,9.38
2019-05-18T01:14:46.747Z,9.15
2019-05-18T01:15:52.326Z,9.05
2019-05-18T01:16:57.651Z,9.03
2019-05-18T01:18:03.511Z,8.40
2019-05-18T01:19:08.539Z,9.30
2019-05-18T01:20:14.670Z,8.58
2019-05-18T01:21:19.736Z,9.28
2019-05-18T01:22:25.612Z,8.20
2019-05-18T01:23:31.031Z,8.88
2019-05-18T01:24:36.927Z,8.75
2019-05-18T01:25:41.946Z,8.75
2019-05-18T01:26:47.535Z,9.00
2019-05-18T01:27:52.297Z,8.85
2019-05-18T01:29:01.796Z,9.08
2019-05-18T01:30:07.494Z,8.93
2019-05-18T01:31:13.302Z,8.75
2019-05-18T01:32:18.091Z,8.80
2019-05-18T01:33:23.890Z,8.45
2019-05-18T01:34:28.965Z,8.33
2019-05-18T01:35:34.255Z,8.23
2019-05-18T01:36:39.442Z,8.90
2019-05-18T01:37:45.322Z,9.15
2019-05-18T01:38:49.790Z,8.53
2019-05-18T01:39:55.332Z,8.50
2019-05-18T01:41:00.698Z,8.55
2019-05-18T01:42:06.263Z,8.85
2019-05-18T01:43:11.009Z,8.80
2019-05-18T01:44:16.821Z,8.53
2019-05-18T01:45:21.837Z,8.65
2019-05-18T01:46:27.433Z,8.78
2019-05-18T01:47:32.819Z,9.13
2019-05-18T01:48:38.370Z,8.50
2019-05-18T01:49:43.470Z,8.23
2019-05-18T01:50:49.306Z,8.40
2019-05-18T01:51:54.642Z,7.83
2019-05-18T01:52:59.952Z,8.13
2019-05-18T01:54:04.987Z,8.15
2019-05-18T01:55:10.247Z,7.70
2019-05-18T01:56:15.318Z,8.40
2019-05-18T01:57:21.547Z,7.30
2019-05-18T01:58:26.016Z,7.97
2019-05-18T01:59:32.401Z,8.63
2019-05-18T02:00:37.379Z,7.40
2019-05-18T02:01:42.986Z,7.90
2019-05-18T02:02:47.969Z,8.40
2019-05-18T02:03:52.973Z,7.87
2019-05-18T02:04:57.941Z,8.43
2019-05-18T02:06:04.023Z,7.53
2019-05-18T02:07:08.812Z,7.67
2019-05-18T02:08:14.134Z,7.25
2019-05-18T02:09:19.125Z,7.53
2019-05-18T02:10:24.421Z,7.80
2019-05-18T02:11:29.410Z,7.85
2019-05-18T02:12:35.005Z,7.37
2019-05-18T02:13:40.490Z,7.55
2019-05-18T02:14:46.036Z,7.62
2019-05-18T02:15:51.059Z,7.35
2019-05-18T02:16:56.752Z,7.72
2019-05-18T02:18:01.758Z,7.60
2019-05-18T02:19:07.111Z,7.87
2019-05-18T02:20:12.833Z,7.87
2019-05-18T02:21:18.673Z,7.35
2019-05-18T02:22:24.219Z,7.37
2019-05-18T02:23:29.753Z,7.97
2019-05-18T02:24:34.451Z,7.72
2019-05-18T02:25:40.024Z,7.92
2019-05-18T02:26:44.752Z,7.70
2019-05-18T02:27:50.294Z,7.83
2019-05-18T02:28:55.298Z,8.05
2019-05-18T02:30:01.941Z,8.20
2019-05-18T02:31:07.039Z,7.55
2019-05-18T02:32:12.623Z,7.72
2019-05-18T02:33:17.080Z,8.38
2019-05-18T02:34:23.047Z,9.05
2019-05-18T02:35:28.428Z,7.80
2019-05-18T02:36:34.494Z,8.68
2019-05-18T02:37:39.513Z,8.08
2019-05-18T02:38:44.842Z,7.92
2019-05-18T02:39:52.406Z,7.80
2019-05-18T02:40:57.658Z,8.35
2019-05-18T02:42:02.417Z,8.25
2019-05-18T02:43:07.910Z,8.20
2019-05-18T02:44:13.183Z,7.70
2019-05-18T02:45:18.521Z,8.63
2019-05-18T02:46:23.894Z,9.03
2019-05-18T02:47:29.836Z,8.25
2019-05-18T02:48:48.513Z,8.30
2019-05-18T02:49:42.120Z,8.53
2019-05-18T02:50:46.857Z,8.20
2019-05-18T02:51:52.452Z,9.10
2019-05-18T02:52:57.376Z,8.40
2019-05-18T02:54:03.538Z,8.33
2019-05-18T02:55:08.487Z,8.18
2019-05-18T02:56:13.998Z,8.63
2019-05-18T02:57:18.761Z,8.08
2019-05-18T02:58:24.386Z,9.15
2019-05-18T02:59:29.758Z,9.05
2019-05-18T03:00:35.083Z,8.78
2019-05-18T03:01:40.120Z,8.73
2019-05-18T03:02:46.015Z,8.63
2019-05-18T03:03:51.317Z,8.65
2019-05-18T03:04:57.808Z,8.88
2019-05-18T03:06:03.426Z,8.53
2019-05-18T03:07:08.957Z,8.73
2019-05-18T03:08:14.298Z,8.23
2019-05-18T03:09:19.956Z,8.13
2019-05-18T03:10:24.950Z,9.20
2019-05-18T03:11:30.617Z,8.38
2019-05-18T03:12:35.939Z,8.95
2019-05-18T03:13:41.130Z,9.00
2019-05-18T03:14:46.517Z,8.55
2019-05-18T03:15:51.840Z,8.53
2019-05-18T03:16:57.575Z,9.15
2019-05-18T03:18:03.213Z,8.33
2019-05-18T03:19:09.245Z,8.63
2019-05-18T03:20:15.157Z,8.58
2019-05-18T03:21:20.889Z,8.30
2019-05-18T03:22:26.694Z,8.43
2019-05-18T03:23:31.718Z,8.90
2019-05-18T03:24:37.607Z,9.58
2019-05-18T03:25:42.774Z,8.25
2019-05-18T03:26:48.101Z,8.43
2019-05-18T03:27:53.783Z,8.93
2019-05-18T03:28:58.757Z,9.13
2019-05-18T03:30:03.925Z,8.30
2019-05-18T03:31:09.020Z,8.73
2019-05-18T03:32:14.229Z,9.15
2019-05-18T03:33:20.092Z,8.98
2019-05-18T03:34:24.908Z,9.20
2019-05-18T03:35:30.898Z,8.25
2019-05-18T03:36:36.243Z,9.08
2019-05-18T03:37:41.890Z,8.90
2019-05-18T03:38:47.184Z,8.83
2019-05-18T03:39:52.639Z,8.45
2019-05-18T03:40:57.927Z,9.33
2019-05-18T03:42:03.620Z,8.68
2019-05-18T03:43:08.390Z,8.60
2019-05-18T03:44:14.133Z,9.25
2019-05-18T03:45:19.140Z,8.55
2019-05-18T03:46:24.730Z,8.88
2019-05-18T03:47:30.072Z,8.90
2019-05-18T03:48:35.965Z,8.80
2019-05-18T03:49:41.009Z,9.10
2019-05-18T03:50:46.263Z,8.73
2019-05-18T03:51:51.051Z,9.40
2019-05-18T03:52:56.654Z,9.10
2019-05-18T03:54:01.974Z,9.63
2019-05-18T03:55:07.605Z,9.28
2019-05-18T03:56:12.646Z,8.93
2019-05-18T03:57:17.899Z,9.48
2019-05-18T03:58:23.023Z,9.28
2019-05-18T03:59:28.874Z,9.03
2019-05-18T04:00:33.608Z,9.38
2019-05-18T04:01:39.478Z,9.00
2019-05-18T04:02:44.782Z,9.33
2019-05-18T04:03:50.665Z,9.43
2019-05-18T04:04:55.364Z,9.50
2019-05-18T04:06:00.649Z,9.60
2019-05-18T04:07:05.904Z,9.45
2019-05-18T04:08:11.841Z,9.40
2019-05-18T04:09:17.180Z,9.30
2019-05-18T04:10:31.798Z,9.23
2019-05-18T04:11:36.838Z,9.15
2019-05-18T04:12:42.371Z,9.55
2019-05-18T04:13:47.500Z,8.83
2019-05-18T04:14:53.255Z,9.70
2019-05-18T04:15:58.199Z,8.75
2019-05-18T04:17:04.073Z,8.80
2019-05-18T04:18:09.068Z,9.13
2019-05-18T04:19:14.934Z,8.85
2019-05-18T04:20:19.676Z,9.18
2019-05-18T04:21:24.926Z,8.68
2019-05-18T04:22:29.694Z,9.65
2019-05-18T04:23:35.621Z,9.15
2019-05-18T04:24:40.568Z,9.35
2019-05-18T04:25:46.266Z,9.18
2019-05-18T04:26:50.924Z,9.20
2019-05-18T04:27:56.520Z,9.08
2019-05-18T04:29:01.314Z,8.63
2019-05-18T04:30:06.783Z,9.08
2019-05-18T04:31:11.789Z,9.58
2019-05-18T04:32:17.882Z,8.75
2019-05-18T04:33:22.981Z,8.80
2019-05-18T04:34:28.811Z,8.35
2019-05-18T04:35:33.819Z,8.85
2019-05-18T04:36:39.416Z,8.35
2019-05-18T04:37:44.487Z,9.20
2019-05-18T04:38:50.632Z,8.60
2019-05-18T04:39:55.898Z,9.10
2019-05-18T04:41:00.957Z,8.93
2019-05-18T04:42:05.980Z,8.45
2019-05-18T04:43:11.552Z,8.98
2019-05-18T04:44:16.793Z,8.68
2019-05-18T04:45:22.072Z,9.08
2019-05-18T04:46:27.280Z,8.38
2019-05-18T04:47:33.106Z,9.78
2019-05-18T04:48:38.428Z,8.68
2019-05-18T04:49:43.798Z,9.18
2019-05-18T04:50:48.903Z,8.40
2019-05-18T04:51:54.758Z,8.60
2019-05-18T04:52:59.800Z,9.33
2019-05-18T04:54:05.095Z,9.28
2019-05-18T04:55:09.947Z,8.85
2019-05-18T04:56:15.654Z,9.25
2019-05-18T04:57:21.250Z,8.50
2019-05-18T04:58:26.904Z,8.38
2019-05-18T04:59:31.752Z,8.93
2019-05-18T05:00:37.412Z,9.18
2019-05-18T05:01:42.207Z,8.53
2019-05-18T05:02:48.415Z,8.65
2019-05-18T05:03:53.487Z,8.58
2019-05-18T05:04:59.376Z,8.53
2019-05-18T05:06:04.087Z,8.63
2019-05-18T05:07:09.684Z,8.43
2019-05-18T05:08:14.486Z,9.15
2019-05-18T05:09:20.487Z,8.88
2019-05-18T05:10:25.780Z,8.83
2019-05-18T05:11:31.900Z,9.20
2019-05-18T05:12:37.237Z,9.08
2019-05-18T05:13:43.323Z,8.60
2019-05-18T05:14:48.938Z,8.80
2019-05-18T05:15:54.597Z,8.90
2019-05-18T05:16:59.863Z,8.40
2019-05-18T05:18:05.424Z,8.65
2019-05-18T05:19:09.900Z,8.63
2019-05-18T05:20:19.837Z,9.48
2019-05-18T05:21:22.493Z,9.33
2019-05-18T05:22:28.387Z,10.15
2019-05-18T05:23:33.241Z,9.00
2019-05-18T05:24:39.097Z,9.48
2019-05-18T05:25:44.656Z,9.68
2019-05-18T05:26:50.206Z,9.08
2019-05-18T05:27:55.596Z,8.98
2019-05-18T05:29:01.858Z,9.38
2019-05-18T05:30:06.629Z,9.33
2019-05-18T05:31:12.791Z,10.50
2019-05-18T05:32:18.233Z,9.93
2019-05-18T05:33:26.719Z,10.15
2019-05-18T05:34:31.724Z,10.15
2019-05-18T05:35:37.966Z,9.45
2019-05-18T05:36:43.305Z,10.23
2019-05-18T05:37:49.255Z,9.83
2019-05-18T05:38:53.907Z,9.88
2019-05-18T05:39:59.827Z,9.83
2019-05-18T05:41:04.660Z,9.65
2019-05-18T05:42:10.182Z,9.50
2019-05-18T05:43:15.554Z,9.65
2019-05-18T05:44:20.861Z,10.18
2019-05-18T05:45:25.475Z,9.20
2019-05-18T05:46:31.462Z,9.73
2019-05-18T05:47:36.479Z,8.38
2019-05-18T05:48:42.173Z,8.28
2019-05-18T05:49:47.474Z,9.05
2019-05-18T05:50:53.019Z,8.48
2019-05-18T05:51:58.037Z,8.88
2019-05-18T05:53:03.667Z,8.60
2019-05-18T05:54:09.021Z,8.60
2019-05-18T05:55:14.980Z,8.60
2019-05-18T05:56:20.504Z,8.20
2019-05-18T05:57:26.162Z,8.15
2019-05-18T05:58:31.310Z,8.10
2019-05-18T05:59:39.757Z,9.00
2019-05-18T06:00:55.979Z,8.93
2019-05-18T06:02:11.974Z,8.73
2019-05-18T06:03:58.258Z,8.68
2019-05-18T06:08:08.810Z,8.10
2019-05-18T06:10:43.390Z,8.30
2019-05-18T06:12:41.025Z,8.00
2019-05-18T06:17:22.341Z,7.45
2019-05-18T06:21:18.748Z,8.75
2019-05-18T06:22:19.453Z,8.75
2019-05-18T06:23:40.208Z,8.40
2019-05-18T06:24:51.215Z,8.50
2019-05-18T06:26:00.178Z,9.20
2019-05-18T06:27:08.073Z,8.53
2019-05-18T06:28:24.293Z,8.53
2019-05-18T06:29:36.856Z,8.20
2019-05-18T06:31:04.380Z,8.48
2019-05-18T06:32:25.798Z,8.13
2019-05-18T06:33:39.724Z,8.08
2019-05-18T06:35:01.626Z,8.15
2019-05-18T06:36:13.527Z,8.80
2019-05-18T06:37:30.298Z,8.48
2019-05-18T06:38:38.983Z,8.38
2019-05-18T06:39:46.594Z,8.23
2019-05-18T06:40:54.225Z,8.55
2019-05-18T06:42:03.273Z,8.85
2019-05-18T06:43:22.917Z,8.60
2019-05-18T06:44:41.440Z,9.20
2019-05-18T06:45:52.810Z,8.65
2019-05-18T06:47:36.320Z,8.25
2019-05-18T06:48:41.230Z,7.70
2019-05-18T06:49:47.136Z,8.40
2019-05-18T06:51:06.325Z,7.92
2019-05-18T06:52:00.418Z,8.15
2019-05-18T06:53:05.539Z,8.60
2019-05-18T06:54:10.873Z,8.03
2019-05-18T06:55:15.628Z,8.65
2019-05-18T06:56:24.453Z,8.58
2019-05-18T06:57:30.215Z,7.97
2019-05-18T06:58:36.679Z,7.78
2019-05-18T06:59:42.395Z,8.43
2019-05-18T07:00:49.832Z,8.58
2019-05-18T07:01:55.117Z,7.92
2019-05-18T07:03:01.022Z,8.55
2019-05-18T07:04:06.166Z,8.43
2019-05-18T07:05:12.369Z,8.08
2019-05-18T07:06:17.146Z,8.10
2019-05-18T07:07:22.442Z,7.72
2019-05-18T07:08:27.596Z,7.58
2019-05-18T07:09:33.884Z,7.92
2019-05-18T07:10:38.880Z,8.13
2019-05-18T07:11:44.451Z,8.53
2019-05-18T07:12:49.430Z,8.30
2019-05-18T07:13:54.885Z,8.65
2019-05-18T07:15:00.544Z,8.20
2019-05-18T07:16:06.207Z,7.60
2019-05-18T07:17:11.020Z,8.05
2019-05-18T07:18:16.635Z,7.75
2019-05-18T07:19:21.628Z,7.40
2019-05-18T07:20:26.883Z,7.30
2019-05-18T07:21:32.157Z,7.67
2019-05-18T07:22:37.751Z,7.15
2019-05-18T07:23:43.978Z,7.87
2019-05-18T07:24:49.589Z,7.58
2019-05-18T07:25:54.864Z,6.12
2019-05-18T07:27:00.789Z,6.55
2019-05-18T07:28:05.519Z,6.83
2019-05-18T07:29:10.499Z,6.85
2019-05-18T07:30:15.720Z,6.45
2019-05-18T07:31:21.246Z,7.03
2019-05-18T07:32:26.620Z,7.08
2019-05-18T07:33:32.179Z,6.67
2019-05-18T07:34:36.861Z,6.60
2019-05-18T07:35:42.423Z,6.60
2019-05-18T07:36:47.144Z,6.53
2019-05-18T07:37:53.082Z,6.72
2019-05-18T07:38:58.125Z,6.42
2019-05-18T07:40:03.578Z,6.95
2019-05-18T07:41:08.910Z,6.72
2019-05-18T07:42:14.193Z,6.03
2019-05-18T07:43:19.228Z,6.33
2019-05-18T07:44:24.796Z,6.25
2019-05-18T07:45:29.508Z,6.35
2019-05-18T07:46:35.317Z,6.45
2019-05-18T07:47:40.283Z,6.83
2019-05-18T07:48:45.824Z,6.08
2019-05-18T07:49:51.084Z,6.62
2019-05-18T07:50:57.219Z,6.75
2019-05-18T07:52:01.992Z,6.47
2019-05-18T07:53:09.195Z,7.08
2019-05-18T07:54:13.949Z,6.40
2019-05-18T07:55:19.570Z,6.72
2019-05-18T07:56:24.555Z,6.70
2019-05-18T07:57:29.857Z,6.17
2019-05-18T07:58:34.693Z,6.25
2019-05-18T07:59:40.277Z,6.37
2019-05-18T08:00:45.961Z,6.03
2019-05-18T08:01:52.129Z,5.87
2019-05-18T08:02:56.814Z,6.45
2019-05-18T08:04:02.450Z,6.15
2019-05-18T08:05:07.648Z,6.50
2019-05-18T08:06:13.298Z,6.42
2019-05-18T08:07:18.135Z,6.42
2019-05-18T08:08:23.799Z,6.30
2019-05-18T08:09:29.794Z,5.95
2019-05-18T08:10:39.726Z,6.47
2019-05-18T08:11:45.450Z,5.70
2019-05-18T08:12:51.329Z,6.60
2019-05-18T08:13:56.669Z,6.45
2019-05-18T08:15:02.440Z,6.53
2019-05-18T08:16:07.487Z,6.47
2019-05-18T08:17:13.080Z,6.47
2019-05-18T08:18:18.098Z,6.80
2019-05-18T08:19:24.201Z,6.37
2019-05-18T08:20:29.576Z,6.80
2019-05-18T08:21:35.130Z,6.55
2019-05-18T08:22:39.965Z,6.65
2019-05-18T08:23:45.805Z,6.87
2019-05-18T08:24:50.838Z,7.03
2019-05-18T08:25:56.623Z,6.92
2019-05-18T08:27:02.600Z,6.70
2019-05-18T08:28:08.343Z,6.53
2019-05-18T08:29:13.345Z,6.62
2019-05-18T08:30:18.632Z,6.53
2019-05-18T08:31:23.335Z,6.95
2019-05-18T08:32:29.486Z,7.20
2019-05-18T08:33:34.904Z,6.67
2019-05-18T08:34:40.209Z,6.17
2019-05-18T08:35:45.490Z,6.97
2019-05-18T08:36:50.884Z,7.15
2019-05-18T08:37:56.256Z,7.08
2019-05-18T08:39:01.703Z,6.72
2019-05-18T08:40:06.949Z,7.08
2019-05-18T08:41:12.552Z,7.08
2019-05-18T08:42:17.600Z,6.90
2019-05-18T08:43:23.760Z,6.60
2019-05-18T08:44:28.743Z,6.42
2019-05-18T08:45:34.631Z,6.67
2019-05-18T08:46:39.705Z,7.28
2019-05-18T08:47:45.142Z,6.47
2019-05-18T08:48:50.127Z,7.25
2019-05-18T08:49:55.169Z,7.20
2019-05-18T08:50:59.944Z,6.95
2019-05-18T08:52:08.406Z,6.30
2019-05-18T08:53:11.827Z,6.85
2019-05-18T08:54:17.570Z,6.85
2019-05-18T08:55:22.583Z,6.05
2019-05-18T08:56:28.476Z,6.58
2019-05-18T08:57:33.251Z,6.55
2019-05-18T08:58:38.871Z,6.00
2019-05-18T08:59:43.622Z,5.90
2019-05-18T09:00:48.991Z,6.10
2019-05-18T09:01:53.874Z,7.00
2019-05-18T09:02:59.130Z,6.28
2019-05-18T09:04:03.928Z,6.62
2019-05-18T09:05:10.136Z,6.45
2019-05-18T09:06:15.350Z,6.45
2019-05-18T09:07:20.413Z,6.60
2019-05-18T09:08:25.126Z,6.55
2019-05-18T09:09:30.586Z,5.80
2019-05-18T09:10:35.429Z,6.33
2019-05-18T09:11:40.954Z,5.75
2019-05-18T09:12:45.809Z,5.05
2019-05-18T09:13:51.058Z,5.85
2019-05-18T09:14:56.132Z,6.28
2019-05-18T09:16:02.247Z,5.65
2019-05-18T09:17:07.314Z,5.83
2019-05-18T09:18:12.907Z,5.80
2019-05-18T09:19:17.670Z,5.87
2019-05-18T09:20:22.963Z,5.80
2019-05-18T09:21:28.561Z,5.83
2019-05-18T09:22:34.764Z,5.90
2019-05-18T09:23:40.152Z,5.42
2019-05-18T09:24:46.054Z,5.40
2019-05-18T09:25:51.370Z,5.20
2019-05-18T09:26:56.638Z,5.22
2019-05-18T09:28:02.288Z,5.33
2019-05-18T09:29:07.646Z,5.35
2019-05-18T09:30:12.961Z,5.55
2019-05-18T09:31:18.897Z,5.28
2019-05-18T09:32:23.932Z,5.92
2019-05-18T09:33:29.867Z,5.60
2019-05-18T09:34:35.234Z,5.47
2019-05-18T09:35:40.817Z,6.25
2019-05-18T09:36:45.550Z,5.67
2019-05-18T09:37:51.541Z,6.22
2019-05-18T09:38:56.554Z,6.42
2019-05-18T09:40:02.197Z,6.72
2019-05-18T09:41:06.999Z,5.72
2019-05-18T09:42:12.637Z,5.60
2019-05-18T09:43:17.414Z,6.00
2019-05-18T09:44:22.703Z,6.00
2019-05-18T09:45:27.442Z,6.08
2019-05-18T09:46:32.525Z,5.97
2019-05-18T09:47:37.302Z,6.70
2019-05-18T09:48:43.184Z,6.53
2019-05-18T09:49:48.038Z,6.10
2019-05-18T09:50:54.288Z,6.33
2019-05-18T09:51:59.011Z,6.33
2019-05-18T09:53:04.330Z,6.15
2019-05-18T09:54:09.181Z,6.28
2019-05-18T09:55:14.852Z,6.50
2019-05-18T09:56:20.028Z,6.95
2019-05-18T09:57:25.059Z,6.53
2019-05-18T09:58:30.399Z,6.15
2019-05-18T09:59:36.000Z,6.37
2019-05-18T10:00:40.740Z,6.60
2019-05-18T10:01:46.072Z,7.05
2019-05-18T10:02:50.885Z,6.47
2019-05-18T10:03:56.492Z,7.80
2019-05-18T10:05:02.002Z,6.85
2019-05-18T10:06:07.107Z,6.65
2019-05-18T10:07:12.428Z,7.00
2019-05-18T10:08:17.765Z,7.40
2019-05-18T10:09:22.737Z,7.12
2019-05-18T10:10:28.366Z,7.22
2019-05-18T10:11:38.350Z,6.87
2019-05-18T10:12:40.631Z,7.72
2019-05-18T10:13:45.379Z,6.85
2019-05-18T10:14:50.990Z,7.10
2019-05-18T10:15:55.716Z,7.22
2019-05-18T10:17:04.304Z,7.05
2019-05-18T10:18:09.125Z,7.40
2019-05-18T10:19:15.100Z,7.12
2019-05-18T10:20:19.730Z,6.45
2019-05-18T10:21:24.767Z,5.85
2019-05-18T10:22:30.152Z,6.90
2019-05-18T10:23:35.734Z,7.03
2019-05-18T10:24:40.235Z,7.10
2019-05-18T10:25:45.516Z,6.47
2019-05-18T10:26:50.263Z,6.33
2019-05-18T10:27:55.792Z,6.25
2019-05-18T10:29:01.727Z,7.10
2019-05-18T10:30:07.206Z,6.70
2019-05-18T10:31:12.574Z,6.22
2019-05-18T10:32:17.947Z,6.58
2019-05-18T10:33:23.029Z,6.25
2019-05-18T10:34:28.607Z,6.50
2019-05-18T10:35:33.209Z,5.97
2019-05-18T10:36:39.053Z,7.28
2019-05-18T10:37:44.334Z,7.20
2019-05-18T10:38:49.932Z,6.87
2019-05-18T10:39:54.973Z,7.60
2019-05-18T10:41:00.100Z,7.17
2019-05-18T10:42:05.406Z,7.22
2019-05-18T10:43:11.296Z,7.47
2019-05-18T10:44:16.321Z,7.58
2019-05-18T10:45:22.681Z,7.58
2019-05-18T10:46:27.783Z,7.83
2019-05-18T10:47:33.376Z,7.08
2019-05-18T10:48:38.383Z,7.58
2019-05-18T10:49:44.243Z,7.60
2019-05-18T10:50:49.271Z,6.92
2019-05-18T10:51:54.856Z,7.05
2019-05-18T10:52:59.902Z,7.12
2019-05-18T10:54:05.309Z,6.47
2019-05-18T10:55:10.405Z,6.35
2019-05-18T10:56:16.074Z,6.90
2019-05-18T10:57:21.110Z,6.55
2019-05-18T10:58:26.372Z,7.10
2019-05-18T10:59:31.447Z,6.67
2019-05-18T11:00:37.032Z,6.25
2019-05-18T11:01:44.025Z,6.28
2019-05-18T11:02:49.333Z,6.05
2019-05-18T11:03:54.313Z,5.78
2019-05-18T11:04:59.634Z,6.85
2019-05-18T11:06:04.585Z,7.20
2019-05-18T11:07:09.829Z,7.05
2019-05-18T11:08:14.948Z,6.80
2019-05-18T11:09:20.531Z,6.17
2019-05-18T11:10:25.826Z,6.17
2019-05-18T11:11:31.439Z,6.83
2019-05-18T11:12:36.781Z,6.95
2019-05-18T11:13:42.037Z,6.87
2019-05-18T11:14:47.012Z,6.50
2019-05-18T11:15:52.535Z,6.67
2019-05-18T11:16:57.868Z,6.50
2019-05-18T11:18:03.137Z,6.05
2019-05-18T11:19:07.631Z,6.70
2019-05-18T11:20:13.520Z,6.70
2019-05-18T11:21:18.516Z,6.72
2019-05-18T11:22:24.071Z,6.20
2019-05-18T11:23:42.530Z,6.25
2019-05-18T11:24:36.007Z,5.80
2019-05-18T11:25:41.076Z,6.08
2019-05-18T11:26:46.379Z,5.50
2019-05-18T11:27:51.212Z,5.62
2019-05-18T11:28:56.604Z,5.00
2019-05-18T11:30:01.670Z,5.28
2019-05-18T11:31:06.997Z,5.20
2019-05-18T11:32:11.687Z,5.47
2019-05-18T11:33:17.246Z,5.45
2019-05-18T11:34:22.072Z,6.03
2019-05-18T11:35:27.739Z,5.83
2019-05-18T11:36:32.843Z,5.55
2019-05-18T11:37:38.515Z,6.28
2019-05-18T11:38:43.845Z,6.97
2019-05-18T11:39:49.811Z,5.67
2019-05-18T11:40:55.277Z,5.70
2019-05-18T11:42:00.754Z,5.67
2019-05-18T11:43:05.791Z,6.10
2019-05-18T11:44:11.747Z,6.17
2019-05-18T11:45:18.189Z,6.90
2019-05-18T11:46:23.859Z,6.53
2019-05-18T11:47:28.363Z,5.83
2019-05-18T11:48:33.906Z,5.60
2019-05-18T11:49:38.966Z,5.72
2019-05-18T11:50:44.805Z,5.75
2019-05-18T11:51:49.391Z,5.03
2019-05-18T11:52:54.401Z,5.42
2019-05-18T11:53:59.696Z,5.08
2019-05-18T11:55:05.440Z,5.25
2019-05-18T11:56:10.723Z,5.47
2019-05-18T11:57:15.986Z,5.53
2019-05-18T11:58:21.005Z,4.65
2019-05-18T11:59:26.328Z,4.75
2019-05-18T12:00:31.733Z,5.10
2019-05-18T12:01:36.996Z,5.50
2019-05-18T12:02:42.023Z,5.20
2019-05-18T12:03:47.857Z,4.62
2019-05-18T12:04:52.897Z,4.83
2019-05-18T12:05:58.790Z,4.78
2019-05-18T12:07:04.407Z,4.72
2019-05-18T12:08:10.229Z,4.95
2019-05-18T12:09:15.418Z,5.08
2019-05-18T12:10:22.174Z,4.58
2019-05-18T12:11:27.693Z,5.55
2019-05-18T12:12:33.835Z,5.00
2019-05-18T12:13:39.109Z,4.85
2019-05-18T12:14:44.671Z,4.72
2019-05-18T12:15:49.201Z,4.58
2019-05-18T12:16:55.113Z,4.50
2019-05-18T12:17:59.863Z,4.85
2019-05-18T12:19:05.208Z,4.45
2019-05-18T12:20:12.395Z,4.67
2019-05-18T12:21:17.924Z,4.20
2019-05-18T12:22:23.117Z,4.75
2019-05-18T12:23:28.402Z,4.97
2019-05-18T12:24:33.441Z,5.10
2019-05-18T12:25:38.684Z,5.22
2019-05-18T12:26:44.065Z,4.33
2019-05-18T12:27:49.409Z,4.53
2019-05-18T12:28:54.357Z,4.37
2019-05-18T12:29:59.354Z,4.22
2019-05-18T12:31:04.475Z,4.42
2019-05-18T12:32:09.803Z,4.20
2019-05-18T12:33:15.108Z,3.72
2019-05-18T12:34:20.895Z,4.40
2019-05-18T12:35:25.574Z,4.00
2019-05-18T12:36:30.896Z,4.10
2019-05-18T12:37:35.618Z,4.00
2019-05-18T12:38:41.451Z,3.90
2019-05-18T12:39:47.042Z,4.12
2019-05-18T12:40:52.583Z,4.17
2019-05-18T12:41:57.627Z,4.28
2019-05-18T12:43:06.176Z,4.10
2019-05-18T12:44:11.217Z,4.15
2019-05-18T12:45:16.701Z,4.10
2019-05-18T12:46:22.195Z,4.55
2019-05-18T12:47:27.744Z,4.25
2019-05-18T12:48:32.826Z,4.78
2019-05-18T12:49:38.155Z,4.37
2019-05-18T12:50:43.153Z,3.90
2019-05-18T12:51:48.678Z,4.03
2019-05-18T12:52:53.935Z,3.72
2019-05-18T12:53:59.843Z,4.30
2019-05-18T12:55:05.087Z,4.70
2019-05-18T12:56:10.654Z,4.37
2019-05-18T12:57:15.647Z,3.58
2019-05-18T12:58:21.188Z,3.40
2019-05-18T12:59:25.986Z,3.17
2019-05-18T13:00:31.419Z,2.80
2019-05-18T13:01:36.669Z,2.77
2019-05-18T13:02:42.491Z,2.83
2019-05-18T13:03:47.554Z,3.60
2019-05-18T13:04:53.092Z,3.05
2019-05-18T13:05:58.085Z,3.27
2019-05-18T13:07:03.545Z,2.90
2019-05-18T13:08:09.198Z,2.95
2019-05-18T13:09:15.017Z,2.98
2019-05-18T13:10:20.866Z,3.70
2019-05-18T13:11:26.459Z,4.00
2019-05-18T13:12:32.048Z,3.77
2019-05-18T13:13:38.129Z,3.42
2019-05-18T13:14:43.170Z,3.77
2019-05-18T13:15:48.805Z,3.30
2019-05-18T13:16:54.118Z,3.60
2019-05-18T13:17:59.727Z,3.83
2019-05-18T13:19:04.254Z,3.77
2019-05-18T13:20:10.327Z,3.33
2019-05-18T13:21:15.052Z,3.25
2019-05-18T13:22:20.886Z,3.58
2019-05-18T13:23:26.290Z,3.10
2019-05-18T13:24:44.347Z,3.50
2019-05-18T13:25:38.133Z,3.42
2019-05-18T13:26:43.962Z,3.25
2019-05-18T13:27:49.321Z,3.12
2019-05-18T13:28:54.603Z,2.92
2019-05-18T13:29:59.569Z,2.87
2019-05-18T13:31:06.809Z,2.90
2019-05-18T13:32:11.785Z,3.20
2019-05-18T13:33:16.839Z,3.22
2019-05-18T13:34:21.860Z,3.17
2019-05-18T13:35:26.949Z,3.33
2019-05-18T13:36:31.398Z,3.30
2019-05-18T13:37:36.447Z,3.30
2019-05-18T13:38:41.178Z,3.08
2019-05-18T13:39:46.590Z,3.47
2019-05-18T13:40:51.327Z,3.85
2019-05-18T13:41:57.003Z,4.00
2019-05-18T13:43:02.338Z,4.28
2019-05-18T13:44:07.344Z,4.15
2019-05-18T13:45:12.860Z,3.98
2019-05-18T13:46:18.978Z,3.30
2019-05-18T13:47:23.968Z,3.17
2019-05-18T13:48:29.248Z,3.00
2019-05-18T13:49:34.266Z,3.65
2019-05-18T13:50:39.584Z,3.80
2019-05-18T13:51:44.860Z,3.67
2019-05-18T13:52:50.460Z,4.05
2019-05-18T13:53:55.752Z,3.27
2019-05-18T13:55:04.477Z,3.90
2019-05-18T13:56:08.626Z,3.55
2019-05-18T13:57:14.607Z,3.37
2019-05-18T13:58:19.101Z,3.52
2019-05-18T13:59:24.086Z,3.33
2019-05-18T14:00:28.809Z,3.42
2019-05-18T14:01:34.386Z,3.55
2019-05-18T14:02:38.858Z,3.27
2019-05-18T14:03:44.718Z,3.00
2019-05-18T14:04:49.414Z,2.90
2019-05-18T14:05:54.703Z,3.08
2019-05-18T14:07:00.102Z,3.30
2019-05-18T14:08:05.627Z,3.02
2019-05-18T14:09:10.640Z,3.00
2019-05-18T14:10:16.475Z,3.40
2019-05-18T14:11:22.268Z,3.35
2019-05-18T14:12:28.134Z,3.12
2019-05-18T14:13:33.053Z,3.15
2019-05-18T14:14:40.885Z,3.15
2019-05-18T14:15:45.687Z,3.10
2019-05-18T14:16:50.942Z,3.22
2019-05-18T14:17:55.944Z,2.87
2019-05-18T14:19:01.530Z,2.90
2019-05-18T14:20:06.691Z,3.58
2019-05-18T14:21:12.242Z,2.70
2019-05-18T14:22:17.222Z,3.05
2019-05-18T14:23:22.894Z,3.50
2019-05-18T14:24:27.857Z,2.87
2019-05-18T14:25:33.721Z,2.77
2019-05-18T14:26:38.610Z,2.75
2019-05-18T14:27:44.036Z,3.12
2019-05-18T14:28:49.028Z,3.12
2019-05-18T14:29:54.596Z,3.10
2019-05-18T14:30:59.907Z,2.85
2019-05-18T14:32:05.637Z,4.03
2019-05-18T14:33:10.639Z,3.52
2019-05-18T14:34:16.206Z,3.47
2019-05-18T14:35:21.220Z,3.22
2019-05-18T14:36:26.207Z,3.10
2019-05-18T14:37:31.510Z,2.80
2019-05-18T14:38:37.363Z,3.20
2019-05-18T14:39:42.688Z,3.00
2019-05-18T14:40:47.937Z,3.37
2019-05-18T14:41:52.943Z,2.95
2019-05-18T14:42:58.559Z,3.40
2019-05-18T14:44:04.010Z,3.50
2019-05-18T14:45:09.759Z,3.10
2019-05-18T14:46:14.454Z,3.40
2019-05-18T14:47:19.795Z,3.62